Map

Track Data

SID SEASON NUMBER BASIN SUBBASIN NAME ISO_TIME NATURE LAT LON WMO_WIND WMO_PRES WMO_AGENCY TRACK_TYPE DIST2LAND LANDFALL IFLAG USA_AGENCY USA_ATCF_ID USA_LAT USA_LON USA_RECORD USA_STATUS USA_WIND USA_PRES USA_SSHS USA_R34_NE USA_R34_SE USA_R34_SW USA_R34_NW USA_R50_NE USA_R50_SE USA_R50_SW USA_R50_NW USA_R64_NE USA_R64_SE USA_R64_SW USA_R64_NW USA_POCI USA_ROCI USA_RMW USA_EYE TOKYO_LAT TOKYO_LON TOKYO_GRADE TOKYO_WIND TOKYO_PRES TOKYO_R50_DIR TOKYO_R50_LONG TOKYO_R50_SHORT TOKYO_R30_DIR TOKYO_R30_LONG TOKYO_R30_SHORT TOKYO_LAND CMA_LAT CMA_LON CMA_CAT CMA_WIND CMA_PRES HKO_LAT HKO_LON HKO_CAT HKO_WIND HKO_PRES NEWDELHI_LAT NEWDELHI_LON NEWDELHI_GRADE NEWDELHI_WIND NEWDELHI_PRES NEWDELHI_CI NEWDELHI_DP NEWDELHI_POCI REUNION_LAT REUNION_LON REUNION_TYPE REUNION_WIND REUNION_PRES REUNION_TNUM REUNION_CI REUNION_RMW REUNION_R34_NE REUNION_R34_SE REUNION_R34_SW REUNION_R34_NW REUNION_R50_NE REUNION_R50_SE REUNION_R50_SW REUNION_R50_NW REUNION_R64_NE REUNION_R64_SE REUNION_R64_SW REUNION_R64_NW BOM_LAT BOM_LON BOM_TYPE BOM_WIND BOM_PRES BOM_TNUM BOM_CI BOM_RMW BOM_R34_NE BOM_R34_SE BOM_R34_SW BOM_R34_NW BOM_R50_NE BOM_R50_SE BOM_R50_SW BOM_R50_NW BOM_R64_NE BOM_R64_SE BOM_R64_SW BOM_R64_NW BOM_ROCI BOM_POCI BOM_EYE BOM_POS_METHOD BOM_PRES_METHOD NADI_LAT NADI_LON NADI_CAT NADI_WIND NADI_PRES WELLINGTON_LAT WELLINGTON_LON WELLINGTON_WIND WELLINGTON_PRES DS824_LAT DS824_LON DS824_STAGE DS824_WIND DS824_PRES TD9636_LAT TD9636_LON TD9636_STAGE TD9636_WIND TD9636_PRES TD9635_LAT TD9635_LON TD9635_WIND TD9635_PRES TD9635_ROCI NEUMANN_LAT NEUMANN_LON NEUMANN_CLASS NEUMANN_WIND NEUMANN_PRES MLC_LAT MLC_LON MLC_CLASS MLC_WIND MLC_PRES USA_GUST BOM_GUST BOM_GUST_PER REUNION_GUST REUNION_GUST_PER USA_SEAHGT USA_SEARAD_NE USA_SEARAD_SE USA_SEARAD_SW USA_SEARAD_NW STORM_SPEED STORM_DIR
1951340N08090 1951 94 NI BB NOT_NAMED 1951-12-05 18:00:00 TS 8.00000 90.0000 main 634 634 O________O____ jtwc_io IO151951 8.00000 90.0000 -1 8.00000 90.0000 TC 9 316
1951340N08090 1951 94 NI BB NOT_NAMED 1951-12-05 21:00:00 TS 8.33007 89.6826 main 678 678 P________P____ IO151951 8.33007 89.6826 -1 8.33007 89.6826 TC 8 315
1951340N08090 1951 94 NI BB NOT_NAMED 1951-12-06 00:00:00 TS 8.60000 89.4000 main 723 723 O________O____ jtwc_io IO151951 8.60000 89.4000 -1 8.60000 89.4000 TC 25 7 312
1951340N08090 1951 94 NI BB NOT_NAMED 1951-12-06 03:00:00 TS 8.77553 89.1799 main 753 753 P________PO___ IO151951 8.77247 89.1774 -1 8.77247 89.1774 TC 25 8.80000 89.2000 1 5 309
1951340N08090 1951 94 NI BB NOT_NAMED 1951-12-06 06:00:00 TS 8.91002 89.0072 main 777 777 O________OP___ jtwc_io IO151951 8.90000 89.0000 -1 8.90000 89.0000 TC 25 8.95007 89.0361 1 4 311
1951340N08090 1951 94 NI BB NOT_NAMED 1951-12-06 09:00:00 TS 9.06365 88.8466 main 788 780 P________PP___ IO151951 9.04999 88.8350 -1 9.04999 88.8350 TC 25 9.10009 88.8776 1 4 316
1951340N08090 1951 94 NI BB NOT_NAMED 1951-12-06 12:00:00 TS 9.21669 88.7101 main 780 772 O________OP___ jtwc_io IO151951 9.20000 88.7000 -1 9.20000 88.7000 TC 25 9.25005 88.7304 1 4 321
1951340N08090 1951 94 NI BB NOT_NAMED 1951-12-06 15:00:00 TS 9.36666 88.5950 main 775 764 P________PO___ IO151951 9.34999 88.5925 -1 9.34999 88.5925 TC 25 9.40000 88.6000 1 4 325
1951340N08090 1951 94 NI BB NOT_NAMED 1951-12-06 18:00:00 TS 9.51665 88.4965 main 767 760 O________OP___ jtwc_io IO151951 9.50000 88.5000 -1 9.50000 88.5000 TC 25 9.54996 88.4896 1 4 327
1951340N08090 1951 94 NI BB NOT_NAMED 1951-12-06 21:00:00 TS 9.66665 88.3975 main 763 752 P________PP___ IO151951 9.65000 88.4000 -1 9.65000 88.4000 TC 30 9.69994 88.3924 1 4 327
1951340N08090 1951 94 NI BB NOT_NAMED 1951-12-07 00:00:00 TS 9.81665 88.2997 main 756 749 O________OP___ jtwc_io IO151951 9.80000 88.3000 -1 9.80000 88.3000 TC 35 9.84996 88.2990 1 4 327
1951340N08090 1951 94 NI BB NOT_NAMED 1951-12-07 03:00:00 TS 9.96666 88.2050 main 753 743 P________PO___ IO151951 9.94999 88.2075 -1 9.94999 88.2075 TC 35 10.0000 88.2000 2 4 325
1951340N08090 1951 94 NI BB NOT_NAMED 1951-12-07 06:00:00 TS 10.1140 88.0887 main 747 741 O________OP___ jtwc_io IO151951 10.1000 88.1000 -1 10.1000 88.1000 TC 35 10.1419 88.0660 2 4 318
1951340N08090 1951 94 NI BB NOT_NAMED 1951-12-07 09:00:00 TS 10.2567 87.9425 main 735 730 P________PP___ IO151951 10.2425 87.9500 -1 10.2425 87.9500 TC 35 10.2850 87.9275 2 4 316
1951340N08090 1951 94 NI BB NOT_NAMED 1951-12-07 12:00:00 TS 10.4119 87.8001 main 730 725 O________OP___ jtwc_io IO151951 10.4000 87.8000 -1 10.4000 87.8000 TC 35 10.4357 87.8003 2 4 323
1951340N08090 1951 94 NI BB NOT_NAMED 1951-12-07 15:00:00 TS 10.5950 87.6850 main 730 724 P________PO___ IO151951 10.5925 87.6775 -1 10.5925 87.6775 TC 35 10.6000 87.7000 3 4 335
1951340N08090 1951 94 NI BB NOT_NAMED 1951-12-07 18:00:00 TS 10.7898 87.6181 main 729 729 O________OP___ jtwc_io IO151951 10.8000 87.6000 -1 10.8000 87.6000 TC 35 10.7693 87.6542 3 4 348
1951340N08090 1951 94 NI BB NOT_NAMED 1951-12-07 21:00:00 TS 10.9800 87.6066 main 739 739 P________PP___ IO151951 10.9925 87.5925 -1 10.9925 87.5925 TC 35 10.9550 87.6348 3 4 0
1951340N08090 1951 94 NI BB NOT_NAMED 1951-12-08 00:00:00 TS 11.1877 87.6077 main 748 748 O________OP___ jtwc_io IO151951 11.2000 87.6000 -1 11.2000 87.6000 TC 35 11.1631 87.6230 3 4 354
1951340N08090 1951 94 NI BB NOT_NAMED 1951-12-08 03:00:00 TS 11.4233 87.5717 main 758 753 P________PO___ IO151951 11.4350 87.5575 -1 11.4350 87.5575 TC 35 11.4000 87.6000 3 5 349
1951340N08090 1951 94 NI BB NOT_NAMED 1951-12-08 06:00:00 TS 11.6891 87.5078 main 763 753 O________OP___ jtwc_io IO151951 11.7000 87.5000 -1 11.7000 87.5000 TC 35 11.6672 87.5233 3 6 347
1951340N08090 1951 94 NI BB NOT_NAMED 1951-12-08 09:00:00 TS 11.9825 87.4451 main 753 730 P________PP___ IO151951 11.9925 87.4500 -1 11.9925 87.4500 TC 50 11.9626 87.4353 3 6 349
1951340N08090 1951 94 NI BB NOT_NAMED 1951-12-08 12:00:00 TS 12.2922 87.3849 main 730 700 O________OP___ jtwc_io IO151951 12.3000 87.4000 -1 12.3000 87.4000 TC 65 12.2766 87.3546 3 6 349
1951340N08090 1951 94 NI BB NOT_NAMED 1951-12-08 15:00:00 TS 12.5950 87.3234 main 700 678 P________PO___ IO151951 12.5925 87.3350 -1 12.5925 87.3350 TC 65 12.6000 87.3000 4 6 352
1951340N08090 1951 94 NI BB NOT_NAMED 1951-12-08 18:00:00 TS 12.9005 87.2960 main 678 658 O________OP___ jtwc_io IO151951 12.9000 87.3000 -1 12.9000 87.3000 TC 65 12.9016 87.2881 4 6 2
1951340N08090 1951 94 NI BB NOT_NAMED 1951-12-08 21:00:00 TS 13.2325 87.3250 main 658 633 P________PP___ IO151951 13.2425 87.3350 -1 13.2425 87.3350 TC 65 13.2125 87.3050 4 7 7
1951340N08090 1951 94 NI BB NOT_NAMED 1951-12-09 00:00:00 TS 13.5807 87.3815 main 633 605 O________OP___ jtwc_io IO151951 13.6000 87.4000 -1 13.6000 87.4000 TC 65 13.5422 87.3444 4 7 9
1951340N08090 1951 94 NI BB NOT_NAMED 1951-12-09 03:00:00 TS 13.9233 87.4333 main 605 576 P________PO___ IO151951 13.9350 87.4500 -1 13.9350 87.4500 TC 65 13.9000 87.4000 4 7 8
1951340N08090 1951 94 NI BB NOT_NAMED 1951-12-09 06:00:00 TS 14.3028 87.4815 main 576 541 O________OP___ jtwc_io IO151951 14.3000 87.5000 -1 14.3000 87.5000 TC 65 14.3084 87.4445 4 8 7
1951340N08090 1951 94 NI BB NOT_NAMED 1951-12-09 09:00:00 TS 14.7425 87.5301 main 541 509 P________PP___ IO151951 14.7425 87.5425 -1 14.7425 87.5425 TC 65 14.7424 87.5052 4 9 7
1951340N08090 1951 94 NI BB NOT_NAMED 1951-12-09 12:00:00 TS 15.1934 87.5961 main 509 485 O________OP___ jtwc_io IO151951 15.2000 87.6000 -1 15.2000 87.6000 TC 65 15.1803 87.5883 4 9 10
1951340N08090 1951 94 NI BB NOT_NAMED 1951-12-09 15:00:00 TS 15.6100 87.6851 main 485 462 P________PO___ IO151951 15.6150 87.6776 -1 15.6150 87.6776 TC 65 15.6000 87.7000 4 8 15
1951340N08090 1951 94 NI BB NOT_NAMED 1951-12-09 18:00:00 TS 16.0000 87.8207 main 462 436 O________OP___ jtwc_io IO151951 16.0000 87.8000 -1 16.0000 87.8000 TC 65 16.0001 87.8621 4 8 22
1951340N08090 1951 94 NI BB NOT_NAMED 1951-12-09 21:00:00 TS 16.3734 88.0114 main 436 415 P________PP___ IO151951 16.3725 87.9924 -1 16.3725 87.9924 TC 65 16.3751 88.0495 4 8 28
1951340N08090 1951 94 NI BB NOT_NAMED 1951-12-10 00:00:00 TS 16.7042 88.2124 main 415 396 O________OP___ jtwc_io IO151951 16.7000 88.2000 -1 16.7000 88.2000 TC 65 16.7126 88.2371 4 7 30
1951340N08090 1951 94 NI BB NOT_NAMED 1951-12-10 03:00:00 TS 16.9867 88.3817 main 396 383 P________PO___ IO151951 16.9800 88.3725 -1 16.9800 88.3725 TC 65 17.0000 88.4000 4 6 29
1951340N08090 1951 94 NI BB NOT_NAMED 1951-12-10 06:00:00 TS 17.2057 88.4987 main 383 371 O________OP___ jtwc_io IO151951 17.2000 88.5000 -1 17.2000 88.5000 TC 65 17.2171 88.4961 4 4 25
1951340N08090 1951 94 NI BB NOT_NAMED 1951-12-10 09:00:00 TS 17.3624 88.5603 main 371 363 P________PP___ IO151951 17.3500 88.5576 -1 17.3500 88.5576 TC 65 17.3873 88.5656 4 3 18
1951340N08090 1951 94 NI BB NOT_NAMED 1951-12-10 12:00:00 TS 17.5130 88.6091 main 363 353 O________OP___ jtwc_io IO151951 17.5000 88.6000 -1 17.5000 88.6000 TC 65 17.5389 88.6273 4 4 19
1951340N08090 1951 94 NI BB NOT_NAMED 1951-12-10 15:00:00 TS 17.7233 88.6900 main 353 337 P________PO___ IO151951 17.7350 88.6850 -1 17.7350 88.6850 TC 50 17.7000 88.7000 4 5 22
1951340N08090 1951 94 NI BB NOT_NAMED 1951-12-10 18:00:00 TS 17.9824 88.8102 main 337 329 O________OP___ jtwc_io IO151951 18.0000 88.8000 -1 18.0000 88.8000 TC 35 17.9473 88.8306 4 6 26
1951340N08090 1951 94 NI BB NOT_NAMED 1951-12-10 21:00:00 TS 18.2542 88.9623 main 329 321 P________PP___ IO151951 18.2800 88.9574 -1 18.2800 88.9574 TC 35 18.2026 88.9721 4 6 29
1951340N08090 1951 94 NI BB NOT_NAMED 1951-12-11 00:00:00 TS 18.4772 89.1008 main 322 322 O________OP___ jtwc_io IO151951 18.5000 89.1000 -1 18.5000 89.1000 TC 35 18.4316 89.1025 4 4 32
1951340N08090 1951 94 NI BB NOT_NAMED 1951-12-11 03:00:00 TS 18.5917 89.1817 main 323 323 P________PO___ IO151951 18.5875 89.1726 -1 18.5875 89.1726 TC 35 18.6000 89.2000 2 2 35
1951340N08090 1951 94 NI BB NOT_NAMED 1951-12-11 06:00:00 TS 18.6215 89.2120 main 323 323 O________OP___ jtwc_io IO151951 18.6000 89.2000 -1 18.6000 89.2000 TC 35 18.6646 89.2361 2 0 50
1951340N08090 1951 94 NI BB NOT_NAMED 1951-12-11 09:00:00 TS 18.6275 89.2176 main 323 323 P________PP___ IO151951 18.6075 89.2075 -1 18.6075 89.2075 TC 35 18.6674 89.2377 2 0 0
1951340N08090 1951 94 NI BB NOT_NAMED 1951-12-11 12:00:00 TS 18.6122 89.2068 main 323 323 O________OP___ jtwc_io IO151951 18.6000 89.2000 -1 18.6000 89.2000 TC 35 18.6365 89.2204 2 0 0
1951340N08090 1951 94 NI BB NOT_NAMED 1951-12-11 15:00:00 TS 18.6000 89.2000 main 323 323 P________PO___ IO151951 18.6000 89.2000 -1 18.6000 89.2000 TC 35 18.6000 89.2000 3 0 0
1951340N08090 1951 94 NI BB NOT_NAMED 1951-12-11 18:00:00 TS 18.5905 89.1946 main 323 323 O________OP___ jtwc_io IO151951 18.6000 89.2000 -1 18.6000 89.2000 TC 35 18.5715 89.1838 3 0 0
1951340N08090 1951 94 NI BB NOT_NAMED 1951-12-11 21:00:00 TS 18.5775 89.1900 main 323 323 P________PP___ IO151951 18.5925 89.2000 -1 18.5925 89.2000 TC 35 18.5475 89.1701 3 0 0
1951340N08090 1951 94 NI BB NOT_NAMED 1951-12-12 00:00:00 TS 18.5832 89.1905 main 323 323 O________OP___ jtwc_io IO151951 18.6000 89.2000 -1 18.6000 89.2000 TC 35 18.5497 89.1714 3 0 335
1951340N08090 1951 94 NI BB NOT_NAMED 1951-12-12 03:00:00 TS 18.6133 89.1850 main 323 317 P________PO___ IO151951 18.6200 89.1776 -1 18.6200 89.1776 TC 35 18.6000 89.2000 3 1 16
1951340N08090 1951 94 NI BB NOT_NAMED 1951-12-12 06:00:00 TS 18.7096 89.2224 main 317 302 O________OP___ jtwc_io IO151951 18.7000 89.2000 -1 18.7000 89.2000 TC 35 18.7288 89.2671 3 3 29
1951340N08090 1951 94 NI BB NOT_NAMED 1951-12-12 09:00:00 TS 18.8867 89.3441 main 302 282 P________PP___ IO151951 18.8775 89.3349 -1 18.8775 89.3349 TC 30 18.9050 89.3624 3 5 33
1951340N08090 1951 94 NI BB NOT_NAMED 1951-12-12 12:00:00 TS 19.1013 89.4922 main 282 262 O________OP___ jtwc_io IO151951 19.1000 89.5000 -1 19.1000 89.5000 TC 25 19.1038 89.4765 3 5 30
1951340N08090 1951 94 NI BB NOT_NAMED 1951-12-12 15:00:00 TS 19.3050 89.6000 main 262 243 P________PO___ IO151951 19.3075 89.6001 -1 19.3075 89.6001 TC 25 19.3000 89.6000 1 4 28
1951340N08090 1951 94 NI BB NOT_NAMED 1951-12-12 18:00:00 TS 19.4896 89.7100 main 243 235 O________OP___ jtwc_io IO151951 19.5000 89.7000 -1 19.5000 89.7000 TC 25 19.4741 89.7250 1 4 34
1951340N08090 1951 94 NI BB NOT_NAMED 1951-12-12 21:00:00 TS 19.6461 89.8428 main 235 221 P________PP___ IO151951 19.6600 89.8374 -1 19.6600 89.8374 TC 25 19.6275 89.8500 1 4 42
1951340N08090 1951 94 NI BB NOT_NAMED 1951-12-13 00:00:00 TS 19.7836 89.9875 main 221 212 O________OP___ jtwc_io IO151951 19.8000 90.0000 -1 19.8000 90.0000 TC 25 19.7672 89.9749 1 4 43
1951340N08090 1951 94 NI BB NOT_NAMED 1951-12-13 03:00:00 NR 19.9000 90.1000 main 212 __________O___ IO151951 -1 TC 19.9000 90.1000 1 3 43

About IBTrACS Database

This database is a web-friendly format of International Best Track Archive for Climate Stewardship (IBTrACS), a global best track data archive curated by NOAA dating back to 1842.

Updated: 2021-12-06